Riverhurst, Canada
Current Conditions -  °F | °C
As of 10:00 AM on Thursday 30 Oct 2014 (Local Time) from CYYN Reporting Station
Overcast Overcast  
Wind Chill: 21°   Ceiling: 300
Heat Index: 30°   Visibility: 7mi
Dew Point: 28°   Wind: 12mph
Humidity: 93%   Direction: 110°ESE
Pressure: 30.36"   Gusts: 18mph
Location:  50.92°N, 106.85°W
Report Text: CYYN 301600Z AUTO 11010G16KT 7SM OVC003 M01/M02 A3036 RMK SLP317
Loading
Personal Weather Stations






























Interactive Weather Map
Tropical Storm Tracking
New forecast layout! Learn more

10-Day Weather Forecast

Advertisements
Track Severe Weather on mobile